createdAt,value
2023-03-26T00:03:39.171Z,12.57
2023-03-26T00:07:44.825Z,6.50
2023-03-26T00:11:50.507Z,11.10
2023-03-26T00:15:57.163Z,9.97
2023-03-26T00:20:05.130Z,5.87
2023-03-26T00:24:17.441Z,13.23
2023-03-26T00:28:24.562Z,8.37
2023-03-26T00:32:30.728Z,10.53
2023-03-26T00:36:36.484Z,10.33
2023-03-26T00:40:44.063Z,10.23
2023-03-26T00:44:51.202Z,14.67
2023-03-26T00:49:00.062Z,12.30
2023-03-26T00:53:05.798Z,9.10
2023-03-26T00:57:16.382Z,12.17
2023-03-26T01:01:30.389Z,10.10
2023-03-26T01:06:08.992Z,16.27
2023-03-26T01:10:14.866Z,18.63
2023-03-26T01:14:25.299Z,15.57
2023-03-26T01:18:34.240Z,21.27
2023-03-26T01:22:49.920Z,10.87
2023-03-26T01:27:14.496Z,19.97
2023-03-26T01:31:37.149Z,5.90
2023-03-26T01:35:51.306Z,8.10
2023-03-26T01:40:07.155Z,8.40
2023-03-26T01:44:38.238Z,12.40
2023-03-26T01:48:46.827Z,7.77
2023-03-26T01:52:52.385Z,19.90
2023-03-26T01:57:07.694Z,12.70
2023-03-26T02:01:29.495Z,8.33
2023-03-26T02:05:44.218Z,8.53
2023-03-26T02:10:00.401Z,7.00
2023-03-26T02:14:08.184Z,6.70
2023-03-26T02:18:13.733Z,13.10
2023-03-26T02:22:19.216Z,12.63
2023-03-26T02:26:25.594Z,5.00
2023-03-26T02:30:33.679Z,5.50
2023-03-26T02:34:41.209Z,10.40
2023-03-26T02:38:46.706Z,14.77
2023-03-26T02:42:52.318Z,8.80
2023-03-26T02:46:57.807Z,6.07
2023-03-26T02:51:04.846Z,5.30
2023-03-26T02:55:10.474Z,9.07
2023-03-26T02:59:15.951Z,8.83
2023-03-26T03:03:24.397Z,8.33
2023-03-26T03:07:29.981Z,7.20
2023-03-26T03:11:36.610Z,25.27
2023-03-26T03:15:42.788Z,6.43
2023-03-26T03:19:48.304Z,6.77
2023-03-26T03:23:55.190Z,7.77
2023-03-26T03:28:00.987Z,3.00
2023-03-26T03:32:06.463Z,6.60
2023-03-26T03:36:20.483Z,4.97
2023-03-26T03:40:27.479Z,6.70
2023-03-26T03:44:32.925Z,5.67
2023-03-26T03:48:39.157Z,4.73
2023-03-26T03:52:44.753Z,9.40
2023-03-26T03:56:50.265Z,6.90
2023-03-26T04:01:03.047Z,8.90
2023-03-26T04:05:11.484Z,4.73
2023-03-26T04:09:16.998Z,5.30
2023-03-26T04:13:22.609Z,3.73
2023-03-26T04:17:30.436Z,4.13
2023-03-26T04:21:37.836Z,4.07
2023-03-26T04:25:53.524Z,4.20
2023-03-26T04:30:01.457Z,1.63
2023-03-26T04:34:24.076Z,5.90
2023-03-26T04:38:33.611Z,3.60
2023-03-26T04:42:46.242Z,3.70
2023-03-26T04:46:55.441Z,1.13
2023-03-26T04:51:01.367Z,5.13
2023-03-26T04:56:06.209Z,2.80
2023-03-26T05:00:16.486Z,6.93
2023-03-26T05:04:22.277Z,9.30
2023-03-26T05:08:28.928Z,1.60
2023-03-26T05:12:34.609Z,3.80
2023-03-26T05:16:41.427Z,4.73
2023-03-26T05:20:47.031Z,3.83
2023-03-26T05:24:52.864Z,5.77
2023-03-26T05:28:58.516Z,4.33
2023-03-26T05:33:04.380Z,3.03
2023-03-26T05:37:09.969Z,5.13
2023-03-26T05:41:17.249Z,3.93
2023-03-26T05:45:23.071Z,4.53
2023-03-26T05:49:28.598Z,6.77
2023-03-26T05:53:34.507Z,8.37
2023-03-26T05:57:40.669Z,14.03
2023-03-26T06:01:46.227Z,4.60
2023-03-26T06:05:51.925Z,5.17
2023-03-26T06:09:57.537Z,4.73
2023-03-26T06:14:03.156Z,14.73
2023-03-26T06:18:09.077Z,6.57
2023-03-26T06:22:14.577Z,19.20
2023-03-26T06:26:20.747Z,8.93
2023-03-26T06:30:26.400Z,12.93
2023-03-26T06:34:32.133Z,10.17
2023-03-26T06:38:37.726Z,10.23
2023-03-26T06:43:09.154Z,12.43
2023-03-26T06:47:08.831Z,12.93
2023-03-26T06:51:14.339Z,9.27
2023-03-26T06:55:19.818Z,15.93
2023-03-26T06:59:25.580Z,13.43
2023-03-26T07:03:31.358Z,12.27
2023-03-26T07:07:45.881Z,18.63
2023-03-26T07:11:52.183Z,16.63
2023-03-26T07:15:57.649Z,8.43
2023-03-26T07:20:04.888Z,27.33
2023-03-26T07:24:14.327Z,16.90
2023-03-26T07:28:41.224Z,14.50
2023-03-26T07:32:56.306Z,21.00
2023-03-26T07:37:12.993Z,9.87
2023-03-26T07:41:36.334Z,12.30
2023-03-26T07:45:45.644Z,14.40
2023-03-26T07:49:57.816Z,8.97
2023-03-26T07:54:04.269Z,20.40
2023-03-26T07:58:24.672Z,10.10
2023-03-26T08:02:44.174Z,10.73
2023-03-26T08:07:13.755Z,9.50
2023-03-26T08:11:45.367Z,13.53
2023-03-26T08:16:27.686Z,13.90
2023-03-26T08:20:45.709Z,21.60
2023-03-26T08:25:22.892Z,5.23
2023-03-26T08:30:05.852Z,21.20
2023-03-26T08:34:13.592Z,14.83
2023-03-26T08:38:20.705Z,15.23
2023-03-26T08:43:19.933Z,22.33
2023-03-26T08:47:40.919Z,19.07
2023-03-26T08:52:17.462Z,10.57
2023-03-26T08:57:02.683Z,16.77
2023-03-26T09:01:45.571Z,11.87
2023-03-26T09:06:31.130Z,10.67
2023-03-26T09:10:57.806Z,17.03
2023-03-26T09:15:37.965Z,13.50
2023-03-26T09:20:40.117Z,12.37
2023-03-26T09:25:54.294Z,11.77
2023-03-26T09:29:59.745Z,12.47
2023-03-26T09:34:34.640Z,18.40
2023-03-26T09:38:55.021Z,11.30
2023-03-26T09:43:38.750Z,11.30
2023-03-26T09:48:12.760Z,12.77
2023-03-26T09:52:39.804Z,12.83
2023-03-26T09:57:19.038Z,12.50
2023-03-26T10:01:49.674Z,12.83
2023-03-26T10:06:18.965Z,11.07
2023-03-26T10:10:46.500Z,13.67
2023-03-26T10:15:19.031Z,16.03
2023-03-26T10:19:55.215Z,12.90
2023-03-26T10:24:28.503Z,9.80
2023-03-26T10:29:09.490Z,14.77
2023-03-26T10:33:28.467Z,12.43
2023-03-26T10:38:13.501Z,9.30
2023-03-26T10:42:54.314Z,13.93
2023-03-26T10:48:00.438Z,15.63
2023-03-26T10:52:13.074Z,13.50
2023-03-26T10:56:49.285Z,7.80
2023-03-26T11:01:04.752Z,15.10
2023-03-26T11:06:06.877Z,9.97
2023-03-26T11:10:25.543Z,18.30
2023-03-26T11:14:47.738Z,14.57
2023-03-26T11:19:01.632Z,16.43
2023-03-26T11:23:32.987Z,7.93
2023-03-26T11:28:42.230Z,10.00
2023-03-26T11:33:13.901Z,10.60
2023-03-26T11:37:34.711Z,10.17
2023-03-26T11:41:40.380Z,13.77
2023-03-26T11:45:48.248Z,7.20
2023-03-26T11:49:58.496Z,16.50
2023-03-26T11:54:07.846Z,8.57
2023-03-26T11:58:52.071Z,13.80
2023-03-26T12:02:59.513Z,13.13
2023-03-26T12:07:21.756Z,8.50
2023-03-26T12:11:33.916Z,10.53
2023-03-26T12:15:43.864Z,9.57
2023-03-26T12:19:49.365Z,9.27
2023-03-26T12:24:00.164Z,9.20
2023-03-26T12:28:14.606Z,7.73
2023-03-26T12:32:20.132Z,10.30
2023-03-26T12:36:30.300Z,12.80
2023-03-26T12:40:36.789Z,18.60
2023-03-26T12:44:58.763Z,11.43
2023-03-26T12:49:07.300Z,12.23
2023-03-26T12:53:49.653Z,8.13
2023-03-26T12:58:28.560Z,13.60
2023-03-26T13:03:00.099Z,16.97
2023-03-26T13:07:25.393Z,10.90
2023-03-26T13:12:09.348Z,10.87
2023-03-26T13:16:38.879Z,13.33
2023-03-26T13:21:07.301Z,12.87
2023-03-26T13:25:27.757Z,5.80
2023-03-26T13:30:11.198Z,11.17
2023-03-26T13:34:56.296Z,10.63
2023-03-26T13:39:34.288Z,15.37
2023-03-26T13:44:35.019Z,13.43
2023-03-26T13:49:13.576Z,10.83
2023-03-26T13:53:25.828Z,17.37
2023-03-26T13:57:37.381Z,9.20
2023-03-26T14:02:08.647Z,10.40
2023-03-26T14:06:42.367Z,9.53
2023-03-26T14:11:18.743Z,10.90
2023-03-26T14:15:34.775Z,12.20
2023-03-26T14:20:02.010Z,6.77
2023-03-26T14:24:28.939Z,19.57
2023-03-26T14:29:07.662Z,18.17
2023-03-26T14:33:34.081Z,7.80
2023-03-26T14:38:19.416Z,13.37
2023-03-26T14:42:56.750Z,10.50
2023-03-26T14:47:08.614Z,4.80
2023-03-26T14:51:55.816Z,15.63
2023-03-26T14:56:47.212Z,10.27
2023-03-26T15:01:25.162Z,7.57
2023-03-26T15:06:21.167Z,7.93
2023-03-26T15:10:47.384Z,12.37
2023-03-26T15:15:11.407Z,7.83
2023-03-26T15:20:20.899Z,6.03
2023-03-26T15:25:19.714Z,9.33
2023-03-26T15:29:59.120Z,17.03
2023-03-26T15:34:51.793Z,13.90
2023-03-26T15:39:16.023Z,13.33
2023-03-26T15:43:22.214Z,10.30
2023-03-26T15:47:54.131Z,5.90
2023-03-26T15:52:26.099Z,11.07
2023-03-26T15:57:01.701Z,13.10
2023-03-26T16:01:19.297Z,11.40
2023-03-26T16:05:43.325Z,6.20
2023-03-26T16:10:17.050Z,4.63
2023-03-26T16:14:34.954Z,4.37
2023-03-26T16:19:13.703Z,5.43
2023-03-26T16:23:47.479Z,5.90
2023-03-26T16:28:12.382Z,4.90
2023-03-26T16:32:28.808Z,4.63
2023-03-26T16:36:43.058Z,4.40
2023-03-26T16:41:19.060Z,3.47
2023-03-26T16:45:29.818Z,6.23
2023-03-26T16:49:41.522Z,8.23
2023-03-26T16:54:04.348Z,3.83
2023-03-26T16:58:40.957Z,5.03
2023-03-26T17:03:26.846Z,2.20
2023-03-26T17:08:17.091Z,4.40
2023-03-26T17:12:34.752Z,3.23
2023-03-26T17:17:19.081Z,5.17
2023-03-26T17:21:55.886Z,5.87
2023-03-26T17:26:10.839Z,7.57
2023-03-26T17:30:57.585Z,3.57
2023-03-26T17:35:07.598Z,3.80
2023-03-26T17:39:40.354Z,3.47
2023-03-26T17:43:53.071Z,2.20
2023-03-26T17:48:19.880Z,2.27
2023-03-26T17:52:53.755Z,4.47
2023-03-26T17:57:12.727Z,5.57
2023-03-26T18:01:44.074Z,3.00
2023-03-26T18:05:55.976Z,2.10
2023-03-26T18:10:10.641Z,3.63
2023-03-26T18:14:34.468Z,3.77
2023-03-26T18:18:54.915Z,6.03
2023-03-26T18:23:10.779Z,2.33
2023-03-26T18:27:21.270Z,1.93
2023-03-26T18:31:27.307Z,4.47
2023-03-26T18:35:51.976Z,21.10
2023-03-26T18:40:00.761Z,12.73
2023-03-26T18:44:14.253Z,2.10
2023-03-26T18:48:24.592Z,3.10
2023-03-26T18:52:32.248Z,2.40
2023-03-26T18:56:43.400Z,1.43
2023-03-26T19:00:52.878Z,4.60
2023-03-26T19:05:03.562Z,5.00
2023-03-26T19:09:28.642Z,4.60
2023-03-26T19:13:43.022Z,2.00
2023-03-26T19:17:56.563Z,1.60
2023-03-26T19:22:04.841Z,2.60
2023-03-26T19:26:11.698Z,7.77
2023-03-26T19:30:40.668Z,1.20
2023-03-26T19:34:48.158Z,1.20
2023-03-26T19:39:04.896Z,2.05
2023-03-26T19:43:14.455Z,2.20
2023-03-26T19:47:35.556Z,0.90
2023-03-26T19:51:53.355Z,0.93
2023-03-26T19:56:13.445Z,1.10
2023-03-26T20:00:19.666Z,1.70
2023-03-26T20:04:25.399Z,1.03
2023-03-26T20:08:31.012Z,1.10
2023-03-26T20:12:36.698Z,1.67
2023-03-26T20:16:45.047Z,0.87
2023-03-26T20:20:54.739Z,1.50
2023-03-26T20:25:00.488Z,3.00
2023-03-26T20:29:06.194Z,1.00
2023-03-26T20:33:27.765Z,2.00
2023-03-26T20:37:33.258Z,2.70
2023-03-26T20:41:47.211Z,1.83
2023-03-26T20:45:53.681Z,2.97
2023-03-26T20:49:59.507Z,1.37
2023-03-26T20:54:21.530Z,4.10
2023-03-26T20:58:31.959Z,3.33
2023-03-26T21:02:38.026Z,3.47
2023-03-26T21:06:43.934Z,4.20
2023-03-26T21:10:49.757Z,1.47
2023-03-26T21:14:56.052Z,4.53
2023-03-26T21:19:03.441Z,1.87
2023-03-26T21:23:24.830Z,1.67
2023-03-26T21:27:39.907Z,4.13
2023-03-26T21:31:46.692Z,2.93
2023-03-26T21:35:52.892Z,2.50
2023-03-26T21:39:59.830Z,1.17
2023-03-26T21:44:05.397Z,2.67
2023-03-26T21:48:11.957Z,6.80
2023-03-26T21:52:17.900Z,4.00
2023-03-26T21:56:48.489Z,2.40
2023-03-26T22:01:25.666Z,4.00
2023-03-26T22:06:08.965Z,1.20
2023-03-26T22:10:14.627Z,1.10
2023-03-26T22:14:20.675Z,4.10
2023-03-26T22:18:29.959Z,2.03
2023-03-26T22:22:35.469Z,3.10
2023-03-26T22:26:41.377Z,3.90
2023-03-26T22:30:46.835Z,1.80
2023-03-26T22:34:53.095Z,1.50
2023-03-26T22:38:58.764Z,8.00
2023-03-26T22:43:04.421Z,2.43
2023-03-26T22:47:09.882Z,4.93
2023-03-26T22:51:16.150Z,3.60
2023-03-26T22:55:28.843Z,2.07
2023-03-26T22:59:35.622Z,1.70
2023-03-26T23:03:41.230Z,2.20
2023-03-26T23:07:46.693Z,4.67
2023-03-26T23:11:52.147Z,7.87
2023-03-26T23:15:57.680Z,2.40
2023-03-26T23:20:12.171Z,2.77
2023-03-26T23:24:17.789Z,2.23
2023-03-26T23:28:23.923Z,1.10
2023-03-26T23:32:29.411Z,1.90
2023-03-26T23:36:35.112Z,4.70
2023-03-26T23:40:44.194Z,2.00
2023-03-26T23:45:04.730Z,3.40
2023-03-26T23:49:10.389Z,3.00
2023-03-26T23:53:17.645Z,3.23
2023-03-26T23:57:23.071Z,1.80
